EDDB

Berlin/Schönefeld International Airport

Airport
ICAO code
EDDB
IATA Code
BER
Summary
ICAO Region
EUR
ICAO Territory
Location

Schönefeld, Brandenburg

Serving
Berlin
Elevation
154 ft
Coordinates
52° 22' 36" N , 13° 30' 36" E
KCC
Metar
Observation
EDDB 070820Z AUTO 19005KT 150V220 CAVOK 11/07 Q1026 NOSIG
Station
Berlin-Schoenefeld
Date/Time
2022-10-07 08:20:00
Wind direction
190°
Wind speed
05 kts
Lowest cloud amount
clouds and visibility OK
Temperature
11°C
Dew point
7°C
Humidity
76%
QNH
1026 hPa
Weather condition
n/a

Description

International airport serving Berlin.

Climatology

Temperate Marine climate/Oceanic climate (Köppen climate classification Cfb) - Moderately cool summer and comparatively warm winter.

Runways

Designator Length Width Surface Rops
07L/25R 2710 45 CON Yes/Yes
07R/25L 3000 45 ASP Yes/Yes

Airport map

Aerial View

SKYbrary Partners:

Safety knowledge contributed by: